ROMMA est une association bénévole à but non lucratif. Votre soutien est indispensable : ADHERER à ROMMA ou FAIRE un DON

La Javie - (04, Alpes de Haute Provence)

Vallée de la Bléone (820 m)   Longitude: 06° 21' E   Latitude: 44° 10' N Station partenaire n°129
 

Détail journalier du     <<     >>

Température Precipitation Humidité Pression Vent Dir Rafale Dir. rafale Ensol.
Heure (°C) (mm) (%) (hPa) (km/h) (km/h) (min)
01:00 18.404310108---31---0
02:00 18.404210095---24---0
03:00 16.704710092---19---0
04:00 16.004810091---16---0
05:00 14.6059101006---0
06:00 12.7066101108---0
07:00 11.8071101202---0
08:00 12.1069101200---0
09:00 13.9064101300---0
10:00 20.6049101302---0
11:00 23.3038101202---0
12:00 25.3044101203---0
13:00 26.804310122---18---0
14:00 26.405010126---18---0
15:00 27.104610138---23---0
16:00 27.204610134---21---0
17:00 27.204210142---16---0
18:00 26.504310144---19---0
19:00 25.304710144---18---0
20:00 23.904910153---13---0
21:00 22.004910162---14---0
22:00 19.8055101602---0
23:00 17.3068101600---0
minuit 15.6072101600---0

Graphique du 07-07-2020

 

Serveur OMMA